Falmouth, Maine
Current Conditions -  °F | °C
As of 3:51 PM on Thursday 18 Dec 2014 (Local Time) from KPWM Reporting Station
Overcast Overcast  
Wind Chill: 36°   Ceiling: 4100
Heat Index: 41°   Visibility: 10mi
Dew Point: 29°   Wind: 8mph
Humidity: 62%   Direction: 330°NNW
Pressure: 29.73"   Gusts: NA
Location:  43.73°N, 70.24°W
Report Text: KPWM 182051Z 33007KT 10SM OVC041 05/M02 A2973 RMK AO2 SLP067 T00501017 53015
Loading
Personal Weather Stations






























Interactive Weather Map New forecast layout! Learn more

10-Day Weather Forecast

Advertisements
Track Severe Weather on mobile